sensor_id;sensor_type;location;lat;lon;timestamp;temperature;humidity
79049;DHT22;68680;50.764;6.120;2024-03-29T00:00:17;8.40;89.80
79049;DHT22;68680;50.764;6.120;2024-03-29T00:02:42;8.40;89.40
79049;DHT22;68680;50.764;6.120;2024-03-29T00:05:08;8.40;89.90
79049;DHT22;68680;50.764;6.120;2024-03-29T00:07:34;8.40;89.10
79049;DHT22;68680;50.764;6.120;2024-03-29T00:10:00;8.40;89.50
79049;DHT22;68680;50.764;6.120;2024-03-29T00:12:27;8.30;89.70
79049;DHT22;68680;50.764;6.120;2024-03-29T00:14:53;8.30;89.60
79049;DHT22;68680;50.764;6.120;2024-03-29T00:17:18;8.30;89.40
79049;DHT22;68680;50.764;6.120;2024-03-29T00:19:44;8.30;89.90
79049;DHT22;68680;50.764;6.120;2024-03-29T00:22:10;8.30;89.50
79049;DHT22;68680;50.764;6.120;2024-03-29T00:24:35;8.30;89.80
79049;DHT22;68680;50.764;6.120;2024-03-29T00:27:01;8.30;89.50
79049;DHT22;68680;50.764;6.120;2024-03-29T00:29:28;8.40;88.80
79049;DHT22;68680;50.764;6.120;2024-03-29T00:31:54;8.50;88.70
79049;DHT22;68680;50.764;6.120;2024-03-29T00:34:20;8.50;89.20
79049;DHT22;68680;50.764;6.120;2024-03-29T00:36:46;8.50;88.90
79049;DHT22;68680;50.764;6.120;2024-03-29T00:39:11;8.50;88.30
79049;DHT22;68680;50.764;6.120;2024-03-29T00:41:37;8.60;88.60
79049;DHT22;68680;50.764;6.120;2024-03-29T00:44:03;8.60;88.60
79049;DHT22;68680;50.764;6.120;2024-03-29T00:46:30;8.60;88.20
79049;DHT22;68680;50.764;6.120;2024-03-29T00:48:56;8.60;88.30
79049;DHT22;68680;50.764;6.120;2024-03-29T00:51:22;8.80;87.60
79049;DHT22;68680;50.764;6.120;2024-03-29T00:53:47;8.80;87.80
79049;DHT22;68680;50.764;6.120;2024-03-29T00:56:15;8.80;87.00
79049;DHT22;68680;50.764;6.120;2024-03-29T00:58:41;8.80;87.30
79049;DHT22;68680;50.764;6.120;2024-03-29T01:01:07;8.70;87.70
79049;DHT22;68680;50.764;6.120;2024-03-29T01:03:34;8.70;87.70
79049;DHT22;68680;50.764;6.120;2024-03-29T01:05:59;8.70;87.00
79049;DHT22;68680;50.764;6.120;2024-03-29T01:08:25;8.80;86.50
79049;DHT22;68680;50.764;6.120;2024-03-29T01:10:51;8.80;86.90
79049;DHT22;68680;50.764;6.120;2024-03-29T01:13:17;8.90;87.00
79049;DHT22;68680;50.764;6.120;2024-03-29T01:15:42;8.90;86.60
79049;DHT22;68680;50.764;6.120;2024-03-29T01:18:08;9.00;86.60
79049;DHT22;68680;50.764;6.120;2024-03-29T01:20:35;9.00;86.40
79049;DHT22;68680;50.764;6.120;2024-03-29T01:23:01;9.00;86.50
79049;DHT22;68680;50.764;6.120;2024-03-29T01:25:27;9.00;84.70
79049;DHT22;68680;50.764;6.120;2024-03-29T01:27:53;9.10;84.90
79049;DHT22;68680;50.764;6.120;2024-03-29T01:30:18;9.10;85.60
79049;DHT22;68680;50.764;6.120;2024-03-29T01:32:44;9.10;85.40
79049;DHT22;68680;50.764;6.120;2024-03-29T01:35:10;9.20;83.90
79049;DHT22;68680;50.764;6.120;2024-03-29T01:37:37;9.30;83.10
79049;DHT22;68680;50.764;6.120;2024-03-29T01:40:03;9.30;82.60
79049;DHT22;68680;50.764;6.120;2024-03-29T01:42:30;9.40;82.20
79049;DHT22;68680;50.764;6.120;2024-03-29T01:44:55;9.40;82.10
79049;DHT22;68680;50.764;6.120;2024-03-29T01:47:21;9.40;82.80
79049;DHT22;68680;50.764;6.120;2024-03-29T01:49:47;9.40;82.20
79049;DHT22;68680;50.764;6.120;2024-03-29T01:52:14;9.40;82.50
79049;DHT22;68680;50.764;6.120;2024-03-29T01:54:44;9.50;82.20
79049;DHT22;68680;50.764;6.120;2024-03-29T01:57:10;9.50;82.00
79049;DHT22;68680;50.764;6.120;2024-03-29T01:59:37;9.40;83.10
79049;DHT22;68680;50.764;6.120;2024-03-29T02:02:06;9.40;84.40
79049;DHT22;68680;50.764;6.120;2024-03-29T02:04:33;9.30;85.60
79049;DHT22;68680;50.764;6.120;2024-03-29T02:06:58;9.30;85.10
79049;DHT22;68680;50.764;6.120;2024-03-29T02:09:25;9.30;86.20
79049;DHT22;68680;50.764;6.120;2024-03-29T02:11:52;9.30;85.10
79049;DHT22;68680;50.764;6.120;2024-03-29T02:14:18;9.30;86.70
79049;DHT22;68680;50.764;6.120;2024-03-29T02:16:44;9.30;88.10
79049;DHT22;68680;50.764;6.120;2024-03-29T02:19:09;9.10;90.10
79049;DHT22;68680;50.764;6.120;2024-03-29T02:21:37;9.10;90.10
79049;DHT22;68680;50.764;6.120;2024-03-29T02:24:09;9.00;91.00
79049;DHT22;68680;50.764;6.120;2024-03-29T02:26:38;8.90;92.00
79049;DHT22;68680;50.764;6.120;2024-03-29T02:29:04;8.70;93.40
79049;DHT22;68680;50.764;6.120;2024-03-29T02:31:30;8.50;94.20
79049;DHT22;68680;50.764;6.120;2024-03-29T02:33:56;8.40;95.80
79049;DHT22;68680;50.764;6.120;2024-03-29T02:36:22;8.30;96.10
79049;DHT22;68680;50.764;6.120;2024-03-29T02:38:47;8.20;97.30
79049;DHT22;68680;50.764;6.120;2024-03-29T02:41:15;8.10;98.30
79049;DHT22;68680;50.764;6.120;2024-03-29T02:43:40;8.00;99.60
79049;DHT22;68680;50.764;6.120;2024-03-29T02:46:06;7.90;99.00
79049;DHT22;68680;50.764;6.120;2024-03-29T02:48:32;7.90;99.50
79049;DHT22;68680;50.764;6.120;2024-03-29T02:50:58;7.90;99.70
79049;DHT22;68680;50.764;6.120;2024-03-29T02:53:24;7.90;99.90
79049;DHT22;68680;50.764;6.120;2024-03-29T02:55:49;7.90;99.70
79049;DHT22;68680;50.764;6.120;2024-03-29T02:58:16;7.80;99.70
79049;DHT22;68680;50.764;6.120;2024-03-29T03:00:42;7.90;99.40
79049;DHT22;68680;50.764;6.120;2024-03-29T03:03:08;7.90;99.90
79049;DHT22;68680;50.764;6.120;2024-03-29T03:05:34;7.90;99.30
79049;DHT22;68680;50.764;6.120;2024-03-29T03:08:00;7.90;99.30
79049;DHT22;68680;50.764;6.120;2024-03-29T03:10:26;7.90;99.30
79049;DHT22;68680;50.764;6.120;2024-03-29T03:12:52;7.90;99.60
79049;DHT22;68680;50.764;6.120;2024-03-29T03:15:19;7.90;99.10
79049;DHT22;68680;50.764;6.120;2024-03-29T03:17:45;7.90;99.80
79049;DHT22;68680;50.764;6.120;2024-03-29T03:20:11;7.90;99.90
79049;DHT22;68680;50.764;6.120;2024-03-29T03:22:37;7.80;99.90
79049;DHT22;68680;50.764;6.120;2024-03-29T03:25:03;7.90;99.90
79049;DHT22;68680;50.764;6.120;2024-03-29T03:27:29;7.90;99.90
79049;DHT22;68680;50.764;6.120;2024-03-29T03:29:55;7.80;99.90
79049;DHT22;68680;50.764;6.120;2024-03-29T03:32:22;7.80;99.90
79049;DHT22;68680;50.764;6.120;2024-03-29T03:34:48;7.80;99.90
79049;DHT22;68680;50.764;6.120;2024-03-29T03:37:14;7.80;99.90
79049;DHT22;68680;50.764;6.120;2024-03-29T03:39:40;7.70;99.90
79049;DHT22;68680;50.764;6.120;2024-03-29T03:42:05;7.80;99.90
79049;DHT22;68680;50.764;6.120;2024-03-29T03:44:31;7.70;99.90
79049;DHT22;68680;50.764;6.120;2024-03-29T03:46:57;7.70;99.90
79049;DHT22;68680;50.764;6.120;2024-03-29T03:49:24;7.70;99.90
79049;DHT22;68680;50.764;6.120;2024-03-29T03:51:50;7.70;99.90
79049;DHT22;68680;50.764;6.120;2024-03-29T03:54:16;7.70;99.90
79049;DHT22;68680;50.764;6.120;2024-03-29T03:56:42;7.70;99.90
79049;DHT22;68680;50.764;6.120;2024-03-29T03:59:07;7.70;99.90
79049;DHT22;68680;50.764;6.120;2024-03-29T04:01:34;7.70;99.90
79049;DHT22;68680;50.764;6.120;2024-03-29T04:04:00;7.70;99.90
79049;DHT22;68680;50.764;6.120;2024-03-29T04:06:27;7.60;99.90
79049;DHT22;68680;50.764;6.120;2024-03-29T04:08:53;7.60;99.90
79049;DHT22;68680;50.764;6.120;2024-03-29T04:11:19;7.60;99.90
79049;DHT22;68680;50.764;6.120;2024-03-29T04:13:45;7.60;99.90
79049;DHT22;68680;50.764;6.120;2024-03-29T04:16:11;7.60;99.90
79049;DHT22;68680;50.764;6.120;2024-03-29T04:18:37;7.60;99.90
79049;DHT22;68680;50.764;6.120;2024-03-29T04:21:03;7.50;99.90
79049;DHT22;68680;50.764;6.120;2024-03-29T04:23:31;7.50;99.90
79049;DHT22;68680;50.764;6.120;2024-03-29T04:25:58;7.50;99.90
79049;DHT22;68680;50.764;6.120;2024-03-29T04:28:25;7.60;99.90
79049;DHT22;68680;50.764;6.120;2024-03-29T04:30:52;7.50;99.90
79049;DHT22;68680;50.764;6.120;2024-03-29T04:33:18;7.50;99.90
79049;DHT22;68680;50.764;6.120;2024-03-29T04:35:53;7.60;99.90
79049;DHT22;68680;50.764;6.120;2024-03-29T04:38:20;7.60;99.90
79049;DHT22;68680;50.764;6.120;2024-03-29T04:40:47;7.60;99.90
79049;DHT22;68680;50.764;6.120;2024-03-29T04:43:13;7.50;99.90
79049;DHT22;68680;50.764;6.120;2024-03-29T04:45:39;7.50;99.90
79049;DHT22;68680;50.764;6.120;2024-03-29T04:48:06;7.50;99.90
79049;DHT22;68680;50.764;6.120;2024-03-29T04:50:32;7.50;99.90
79049;DHT22;68680;50.764;6.120;2024-03-29T04:52:58;7.40;99.90
79049;DHT22;68680;50.764;6.120;2024-03-29T04:55:24;7.30;99.90
79049;DHT22;68680;50.764;6.120;2024-03-29T04:57:51;7.30;99.90
79049;DHT22;68680;50.764;6.120;2024-03-29T05:00:16;7.30;99.90
79049;DHT22;68680;50.764;6.120;2024-03-29T05:02:42;7.20;99.90
79049;DHT22;68680;50.764;6.120;2024-03-29T05:05:08;7.20;99.90
79049;DHT22;68680;50.764;6.120;2024-03-29T05:07:34;7.20;99.90
79049;DHT22;68680;50.764;6.120;2024-03-29T05:10:00;7.20;99.90
79049;DHT22;68680;50.764;6.120;2024-03-29T05:12:25;7.20;99.90
79049;DHT22;68680;50.764;6.120;2024-03-29T05:14:53;7.10;99.90
79049;DHT22;68680;50.764;6.120;2024-03-29T05:17:18;7.10;99.90
79049;DHT22;68680;50.764;6.120;2024-03-29T05:19:44;7.10;99.90
79049;DHT22;68680;50.764;6.120;2024-03-29T05:22:10;7.10;99.90
79049;DHT22;68680;50.764;6.120;2024-03-29T05:24:36;7.20;99.90
79049;DHT22;68680;50.764;6.120;2024-03-29T05:27:02;7.20;99.90
79049;DHT22;68680;50.764;6.120;2024-03-29T05:29:28;7.20;99.90
79049;DHT22;68680;50.764;6.120;2024-03-29T05:31:55;7.20;99.90
79049;DHT22;68680;50.764;6.120;2024-03-29T05:34:20;7.20;99.90
79049;DHT22;68680;50.764;6.120;2024-03-29T05:36:46;7.30;99.90
79049;DHT22;68680;50.764;6.120;2024-03-29T05:39:12;7.30;99.90
79049;DHT22;68680;50.764;6.120;2024-03-29T05:41:38;7.40;99.90
79049;DHT22;68680;50.764;6.120;2024-03-29T05:44:04;7.40;99.90
79049;DHT22;68680;50.764;6.120;2024-03-29T05:46:29;7.50;99.90
79049;DHT22;68680;50.764;6.120;2024-03-29T05:48:56;7.50;99.90
79049;DHT22;68680;50.764;6.120;2024-03-29T05:51:22;7.60;99.90
79049;DHT22;68680;50.764;6.120;2024-03-29T05:53:48;7.60;99.90
79049;DHT22;68680;50.764;6.120;2024-03-29T05:56:14;7.70;99.90
79049;DHT22;68680;50.764;6.120;2024-03-29T05:58:40;7.80;99.90
79049;DHT22;68680;50.764;6.120;2024-03-29T06:01:06;7.90;99.90
79049;DHT22;68680;50.764;6.120;2024-03-29T06:03:32;7.90;99.90
79049;DHT22;68680;50.764;6.120;2024-03-29T06:05:59;8.10;99.90
79049;DHT22;68680;50.764;6.120;2024-03-29T06:08:24;8.20;99.90
79049;DHT22;68680;50.764;6.120;2024-03-29T06:10:50;8.20;99.90
79049;DHT22;68680;50.764;6.120;2024-03-29T06:13:16;8.30;99.90
79049;DHT22;68680;50.764;6.120;2024-03-29T06:15:42;8.30;99.90
79049;DHT22;68680;50.764;6.120;2024-03-29T06:18:08;8.40;99.90
79049;DHT22;68680;50.764;6.120;2024-03-29T06:20:33;8.50;99.90
79049;DHT22;68680;50.764;6.120;2024-03-29T06:23:00;8.50;99.90
79049;DHT22;68680;50.764;6.120;2024-03-29T06:25:26;8.70;99.90
79049;DHT22;68680;50.764;6.120;2024-03-29T06:27:52;8.70;99.90
79049;DHT22;68680;50.764;6.120;2024-03-29T06:30:18;8.80;99.90
79049;DHT22;68680;50.764;6.120;2024-03-29T06:32:44;8.80;99.90
79049;DHT22;68680;50.764;6.120;2024-03-29T06:35:09;8.70;99.90
79049;DHT22;68680;50.764;6.120;2024-03-29T06:37:35;8.70;99.90
79049;DHT22;68680;50.764;6.120;2024-03-29T06:40:02;8.70;99.90
79049;DHT22;68680;50.764;6.120;2024-03-29T06:42:28;8.60;99.90
79049;DHT22;68680;50.764;6.120;2024-03-29T06:44:54;8.60;99.90
79049;DHT22;68680;50.764;6.120;2024-03-29T06:47:20;8.60;99.90
79049;DHT22;68680;50.764;6.120;2024-03-29T06:49:46;8.50;99.90
79049;DHT22;68680;50.764;6.120;2024-03-29T06:52:12;8.50;99.90
79049;DHT22;68680;50.764;6.120;2024-03-29T06:54:38;8.50;99.90
79049;DHT22;68680;50.764;6.120;2024-03-29T06:57:06;8.50;99.90
79049;DHT22;68680;50.764;6.120;2024-03-29T06:59:31;8.50;99.90
79049;DHT22;68680;50.764;6.120;2024-03-29T07:01:57;8.50;99.90
79049;DHT22;68680;50.764;6.120;2024-03-29T07:04:24;8.50;99.90
79049;DHT22;68680;50.764;6.120;2024-03-29T07:06:50;8.60;99.90
79049;DHT22;68680;50.764;6.120;2024-03-29T07:09:17;8.60;99.90
79049;DHT22;68680;50.764;6.120;2024-03-29T07:11:43;8.60;99.90
79049;DHT22;68680;50.764;6.120;2024-03-29T07:14:11;8.70;99.90
79049;DHT22;68680;50.764;6.120;2024-03-29T07:16:37;8.70;99.90
79049;DHT22;68680;50.764;6.120;2024-03-29T07:19:03;8.80;99.90
79049;DHT22;68680;50.764;6.120;2024-03-29T07:21:29;8.80;99.90
79049;DHT22;68680;50.764;6.120;2024-03-29T07:23:55;8.80;99.90
79049;DHT22;68680;50.764;6.120;2024-03-29T07:26:21;8.90;99.90
79049;DHT22;68680;50.764;6.120;2024-03-29T07:28:46;8.90;99.90
79049;DHT22;68680;50.764;6.120;2024-03-29T07:31:13;9.00;99.90
79049;DHT22;68680;50.764;6.120;2024-03-29T07:33:39;9.10;99.90
79049;DHT22;68680;50.764;6.120;2024-03-29T07:36:06;9.20;99.90
79049;DHT22;68680;50.764;6.120;2024-03-29T07:38:32;9.30;99.90
79049;DHT22;68680;50.764;6.120;2024-03-29T07:40:57;9.40;99.90
79049;DHT22;68680;50.764;6.120;2024-03-29T07:43:23;9.40;99.90
79049;DHT22;68680;50.764;6.120;2024-03-29T07:45:49;9.50;99.90
79049;DHT22;68680;50.764;6.120;2024-03-29T07:48:17;9.60;99.90
79049;DHT22;68680;50.764;6.120;2024-03-29T07:50:44;9.70;99.90
79049;DHT22;68680;50.764;6.120;2024-03-29T07:53:11;9.70;99.90
79049;DHT22;68680;50.764;6.120;2024-03-29T07:55:39;9.70;99.90
79049;DHT22;68680;50.764;6.120;2024-03-29T07:58:06;9.70;99.90
79049;DHT22;68680;50.764;6.120;2024-03-29T08:00:32;9.80;99.90
79049;DHT22;68680;50.764;6.120;2024-03-29T08:02:58;9.80;99.90
79049;DHT22;68680;50.764;6.120;2024-03-29T08:05:25;9.90;99.90
79049;DHT22;68680;50.764;6.120;2024-03-29T08:07:52;10.00;99.90
79049;DHT22;68680;50.764;6.120;2024-03-29T08:10:18;10.20;99.90
79049;DHT22;68680;50.764;6.120;2024-03-29T08:12:43;10.40;99.90
79049;DHT22;68680;50.764;6.120;2024-03-29T08:15:09;10.50;99.90
79049;DHT22;68680;50.764;6.120;2024-03-29T08:17:37;10.70;99.90
79049;DHT22;68680;50.764;6.120;2024-03-29T08:20:03;10.80;99.90
79049;DHT22;68680;50.764;6.120;2024-03-29T08:22:30;10.90;99.90
79049;DHT22;68680;50.764;6.120;2024-03-29T08:24:56;10.90;99.90
79049;DHT22;68680;50.764;6.120;2024-03-29T08:27:22;10.90;99.90
79049;DHT22;68680;50.764;6.120;2024-03-29T08:29:48;11.00;99.90
79049;DHT22;68680;50.764;6.120;2024-03-29T08:32:13;11.00;99.90
79049;DHT22;68680;50.764;6.120;2024-03-29T08:34:39;11.00;99.90
79049;DHT22;68680;50.764;6.120;2024-03-29T08:37:05;11.10;99.90
79049;DHT22;68680;50.764;6.120;2024-03-29T08:39:32;11.10;99.90
79049;DHT22;68680;50.764;6.120;2024-03-29T08:41:58;11.10;99.90
79049;DHT22;68680;50.764;6.120;2024-03-29T08:44:24;11.20;99.90
79049;DHT22;68680;50.764;6.120;2024-03-29T08:46:50;11.30;99.90
79049;DHT22;68680;50.764;6.120;2024-03-29T08:49:16;11.30;99.90
79049;DHT22;68680;50.764;6.120;2024-03-29T08:51:41;11.40;99.90
79049;DHT22;68680;50.764;6.120;2024-03-29T08:54:07;11.40;99.90
79049;DHT22;68680;50.764;6.120;2024-03-29T08:56:34;11.40;99.90
79049;DHT22;68680;50.764;6.120;2024-03-29T08:59:00;11.60;99.90
79049;DHT22;68680;50.764;6.120;2024-03-29T09:01:26;11.70;99.90
79049;DHT22;68680;50.764;6.120;2024-03-29T09:03:52;11.80;99.90
79049;DHT22;68680;50.764;6.120;2024-03-29T09:06:18;11.80;99.90
79049;DHT22;68680;50.764;6.120;2024-03-29T09:08:43;11.90;99.90
79049;DHT22;68680;50.764;6.120;2024-03-29T09:11:09;12.00;99.90
79049;DHT22;68680;50.764;6.120;2024-03-29T09:13:36;12.10;99.90
79049;DHT22;68680;50.764;6.120;2024-03-29T09:16:02;12.10;99.90
79049;DHT22;68680;50.764;6.120;2024-03-29T09:18:29;12.20;99.90
79049;DHT22;68680;50.764;6.120;2024-03-29T09:20:57;12.20;99.90
79049;DHT22;68680;50.764;6.120;2024-03-29T09:23:23;12.20;99.90
79049;DHT22;68680;50.764;6.120;2024-03-29T09:25:51;12.30;99.90
79049;DHT22;68680;50.764;6.120;2024-03-29T09:28:17;12.30;99.90
79049;DHT22;68680;50.764;6.120;2024-03-29T09:30:44;12.50;99.90
79049;DHT22;68680;50.764;6.120;2024-03-29T09:33:10;12.40;99.90
79049;DHT22;68680;50.764;6.120;2024-03-29T09:35:36;12.40;99.90
79049;DHT22;68680;50.764;6.120;2024-03-29T09:38:02;12.50;99.90
79049;DHT22;68680;50.764;6.120;2024-03-29T09:40:28;12.60;99.50
79049;DHT22;68680;50.764;6.120;2024-03-29T09:42:56;12.60;99.30
79049;DHT22;68680;50.764;6.120;2024-03-29T09:45:25;12.70;99.60
79049;DHT22;68680;50.764;6.120;2024-03-29T09:47:53;12.60;98.90
79049;DHT22;68680;50.764;6.120;2024-03-29T09:50:21;12.50;99.00
79049;DHT22;68680;50.764;6.120;2024-03-29T09:52:49;12.40;98.50
79049;DHT22;68680;50.764;6.120;2024-03-29T09:55:16;12.40;99.50
79049;DHT22;68680;50.764;6.120;2024-03-29T09:57:44;12.40;99.30
79049;DHT22;68680;50.764;6.120;2024-03-29T10:00:11;12.40;99.50
79049;DHT22;68680;50.764;6.120;2024-03-29T10:02:38;12.40;99.20
79049;DHT22;68680;50.764;6.120;2024-03-29T10:05:08;12.50;99.90
79049;DHT22;68680;50.764;6.120;2024-03-29T10:07:36;12.60;99.10
79049;DHT22;68680;50.764;6.120;2024-03-29T10:10:04;12.70;99.10
79049;DHT22;68680;50.764;6.120;2024-03-29T10:12:30;12.70;98.60
79049;DHT22;68680;50.764;6.120;2024-03-29T10:14:56;12.80;97.70
79049;DHT22;68680;50.764;6.120;2024-03-29T10:17:22;12.90;98.40
79049;DHT22;68680;50.764;6.120;2024-03-29T10:19:48;12.90;98.20
79049;DHT22;68680;50.764;6.120;2024-03-29T10:22:15;12.90;97.40
79049;DHT22;68680;50.764;6.120;2024-03-29T10:24:41;12.90;97.10
79049;DHT22;68680;50.764;6.120;2024-03-29T10:27:07;12.90;96.80
79049;DHT22;68680;50.764;6.120;2024-03-29T10:29:33;12.90;97.70
79049;DHT22;68680;50.764;6.120;2024-03-29T10:32:00;13.10;97.40
79049;DHT22;68680;50.764;6.120;2024-03-29T10:34:26;13.20;96.50
79049;DHT22;68680;50.764;6.120;2024-03-29T10:36:52;13.10;95.80
79049;DHT22;68680;50.764;6.120;2024-03-29T10:39:20;13.20;96.60
79049;DHT22;68680;50.764;6.120;2024-03-29T10:41:47;13.10;96.60
79049;DHT22;68680;50.764;6.120;2024-03-29T10:44:15;13.20;95.90
79049;DHT22;68680;50.764;6.120;2024-03-29T10:46:41;13.20;95.80
79049;DHT22;68680;50.764;6.120;2024-03-29T10:49:08;13.20;95.60
79049;DHT22;68680;50.764;6.120;2024-03-29T10:51:35;13.20;96.20
79049;DHT22;68680;50.764;6.120;2024-03-29T10:54:03;13.10;96.30
79049;DHT22;68680;50.764;6.120;2024-03-29T10:56:33;13.10;94.80
79049;DHT22;68680;50.764;6.120;2024-03-29T10:59:05;13.10;96.10
79049;DHT22;68680;50.764;6.120;2024-03-29T11:01:44;13.00;94.70
79049;DHT22;68680;50.764;6.120;2024-03-29T11:04:22;12.90;95.00
79049;DHT22;68680;50.764;6.120;2024-03-29T11:06:51;12.80;95.40
79049;DHT22;68680;50.764;6.120;2024-03-29T11:09:20;12.80;95.00
79049;DHT22;68680;50.764;6.120;2024-03-29T11:11:50;12.80;96.40
79049;DHT22;68680;50.764;6.120;2024-03-29T11:14:20;13.00;95.90
79049;DHT22;68680;50.764;6.120;2024-03-29T11:16:53;13.20;95.50
79049;DHT22;68680;50.764;6.120;2024-03-29T11:19:19;13.40;95.50
79049;DHT22;68680;50.764;6.120;2024-03-29T11:21:45;13.50;93.70
79049;DHT22;68680;50.764;6.120;2024-03-29T11:24:11;13.50;93.40
79049;DHT22;68680;50.764;6.120;2024-03-29T11:26:37;13.60;93.60
79049;DHT22;68680;50.764;6.120;2024-03-29T11:29:04;13.80;93.60
79049;DHT22;68680;50.764;6.120;2024-03-29T11:31:30;13.80;93.70
79049;DHT22;68680;50.764;6.120;2024-03-29T11:33:57;13.80;92.80
79049;DHT22;68680;50.764;6.120;2024-03-29T11:36:24;14.00;92.80
79049;DHT22;68680;50.764;6.120;2024-03-29T11:38:55;14.10;91.20
79049;DHT22;68680;50.764;6.120;2024-03-29T11:41:22;14.10;91.80
79049;DHT22;68680;50.764;6.120;2024-03-29T11:43:50;14.00;90.80
79049;DHT22;68680;50.764;6.120;2024-03-29T11:46:18;13.80;91.80
79049;DHT22;68680;50.764;6.120;2024-03-29T11:48:45;13.70;91.70
79049;DHT22;68680;50.764;6.120;2024-03-29T11:51:13;13.60;91.10
79049;DHT22;68680;50.764;6.120;2024-03-29T11:53:40;13.50;91.60
79049;DHT22;68680;50.764;6.120;2024-03-29T11:56:06;13.50;91.80
79049;DHT22;68680;50.764;6.120;2024-03-29T11:58:33;13.60;92.70
79049;DHT22;68680;50.764;6.120;2024-03-29T12:01:00;13.60;91.90
79049;DHT22;68680;50.764;6.120;2024-03-29T12:03:29;13.60;93.10
79049;DHT22;68680;50.764;6.120;2024-03-29T12:05:56;13.70;92.30
79049;DHT22;68680;50.764;6.120;2024-03-29T12:08:23;13.70;92.00
79049;DHT22;68680;50.764;6.120;2024-03-29T12:10:49;13.80;92.90
79049;DHT22;68680;50.764;6.120;2024-03-29T12:13:16;13.80;92.30
79049;DHT22;68680;50.764;6.120;2024-03-29T12:15:43;13.70;92.30
79049;DHT22;68680;50.764;6.120;2024-03-29T12:18:10;13.60;90.90
79049;DHT22;68680;50.764;6.120;2024-03-29T12:20:38;13.40;92.10
79049;DHT22;68680;50.764;6.120;2024-03-29T12:23:06;13.20;91.30
79049;DHT22;68680;50.764;6.120;2024-03-29T12:25:35;13.20;92.20
79049;DHT22;68680;50.764;6.120;2024-03-29T12:28:02;13.10;92.10
79049;DHT22;68680;50.764;6.120;2024-03-29T12:30:29;13.10;92.30
79049;DHT22;68680;50.764;6.120;2024-03-29T12:33:02;13.00;92.00
79049;DHT22;68680;50.764;6.120;2024-03-29T12:35:29;13.00;93.00
79049;DHT22;68680;50.764;6.120;2024-03-29T12:37:58;12.90;93.80
79049;DHT22;68680;50.764;6.120;2024-03-29T12:40:25;12.80;94.20
79049;DHT22;68680;50.764;6.120;2024-03-29T12:42:52;12.80;95.40
79049;DHT22;68680;50.764;6.120;2024-03-29T12:45:18;12.70;95.90
79049;DHT22;68680;50.764;6.120;2024-03-29T12:47:45;12.70;95.60
79049;DHT22;68680;50.764;6.120;2024-03-29T12:50:13;12.70;94.90
79049;DHT22;68680;50.764;6.120;2024-03-29T12:52:46;12.60;95.30
79049;DHT22;68680;50.764;6.120;2024-03-29T12:55:14;12.70;95.70
79049;DHT22;68680;50.764;6.120;2024-03-29T12:57:40;12.90;94.80
79049;DHT22;68680;50.764;6.120;2024-03-29T13:00:07;13.00;94.80
79049;DHT22;68680;50.764;6.120;2024-03-29T13:02:33;13.20;94.40
79049;DHT22;68680;50.764;6.120;2024-03-29T13:04:59;13.40;93.30
79049;DHT22;68680;50.764;6.120;2024-03-29T13:07:25;13.60;93.20
79049;DHT22;68680;50.764;6.120;2024-03-29T13:09:51;14.10;92.30
79049;DHT22;68680;50.764;6.120;2024-03-29T13:12:18;14.30;91.40
79049;DHT22;68680;50.764;6.120;2024-03-29T13:14:44;14.00;91.80
79049;DHT22;68680;50.764;6.120;2024-03-29T13:17:09;14.00;91.40
79049;DHT22;68680;50.764;6.120;2024-03-29T13:19:35;14.00;91.70
79049;DHT22;68680;50.764;6.120;2024-03-29T13:22:01;13.90;90.70
79049;DHT22;68680;50.764;6.120;2024-03-29T13:24:27;13.90;90.90
79049;DHT22;68680;50.764;6.120;2024-03-29T13:26:53;14.60;89.20
79049;DHT22;68680;50.764;6.120;2024-03-29T13:29:20;14.70;88.70
79049;DHT22;68680;50.764;6.120;2024-03-29T13:31:46;15.70;84.50
79049;DHT22;68680;50.764;6.120;2024-03-29T13:34:11;15.80;83.30
79049;DHT22;68680;50.764;6.120;2024-03-29T13:36:37;15.30;85.20
79049;DHT22;68680;50.764;6.120;2024-03-29T13:39:03;15.40;87.00
79049;DHT22;68680;50.764;6.120;2024-03-29T13:41:29;16.70;80.90
79049;DHT22;68680;50.764;6.120;2024-03-29T13:43:55;16.70;77.80
79049;DHT22;68680;50.764;6.120;2024-03-29T13:46:22;16.10;80.50
79049;DHT22;68680;50.764;6.120;2024-03-29T13:48:48;15.70;83.30
79049;DHT22;68680;50.764;6.120;2024-03-29T13:51:14;15.70;82.00
79049;DHT22;68680;50.764;6.120;2024-03-29T13:53:41;15.80;81.50
79049;DHT22;68680;50.764;6.120;2024-03-29T13:56:07;16.00;80.30
79049;DHT22;68680;50.764;6.120;2024-03-29T13:58:33;17.00;74.90
79049;DHT22;68680;50.764;6.120;2024-03-29T14:00:59;17.40;73.80
79049;DHT22;68680;50.764;6.120;2024-03-29T14:03:26;17.30;74.50
79049;DHT22;68680;50.764;6.120;2024-03-29T14:05:52;16.40;75.40
79049;DHT22;68680;50.764;6.120;2024-03-29T14:08:18;15.70;77.90
79049;DHT22;68680;50.764;6.120;2024-03-29T14:10:44;15.40;78.10
79049;DHT22;68680;50.764;6.120;2024-03-29T14:13:09;15.20;78.00
79049;DHT22;68680;50.764;6.120;2024-03-29T14:15:35;15.20;80.10
79049;DHT22;68680;50.764;6.120;2024-03-29T14:18:01;15.30;78.10
79049;DHT22;68680;50.764;6.120;2024-03-29T14:20:28;15.30;79.60
79049;DHT22;68680;50.764;6.120;2024-03-29T14:22:54;15.50;80.90
79049;DHT22;68680;50.764;6.120;2024-03-29T14:25:20;15.70;78.30
79049;DHT22;68680;50.764;6.120;2024-03-29T14:27:46;15.60;77.50
79049;DHT22;68680;50.764;6.120;2024-03-29T14:30:12;15.20;78.60
79049;DHT22;68680;50.764;6.120;2024-03-29T14:32:38;15.00;77.30
79049;DHT22;68680;50.764;6.120;2024-03-29T14:35:04;14.90;79.10
79049;DHT22;68680;50.764;6.120;2024-03-29T14:37:32;14.90;82.70
79049;DHT22;68680;50.764;6.120;2024-03-29T14:39:57;14.70;81.80
79049;DHT22;68680;50.764;6.120;2024-03-29T14:42:23;14.70;84.50
79049;DHT22;68680;50.764;6.120;2024-03-29T14:44:49;14.80;84.70
79049;DHT22;68680;50.764;6.120;2024-03-29T14:47:15;14.80;85.20
79049;DHT22;68680;50.764;6.120;2024-03-29T14:49:41;14.60;84.90
79049;DHT22;68680;50.764;6.120;2024-03-29T14:52:06;14.50;84.90
79049;DHT22;68680;50.764;6.120;2024-03-29T14:54:33;14.50;86.20
79049;DHT22;68680;50.764;6.120;2024-03-29T14:56:59;14.50;84.80
79049;DHT22;68680;50.764;6.120;2024-03-29T14:59:25;14.50;85.80
79049;DHT22;68680;50.764;6.120;2024-03-29T15:01:51;14.90;83.70
79049;DHT22;68680;50.764;6.120;2024-03-29T15:04:16;15.40;82.70
79049;DHT22;68680;50.764;6.120;2024-03-29T15:06:42;15.60;82.40
79049;DHT22;68680;50.764;6.120;2024-03-29T15:09:08;15.30;81.30
79049;DHT22;68680;50.764;6.120;2024-03-29T15:11:35;14.90;83.30
79049;DHT22;68680;50.764;6.120;2024-03-29T15:14:01;14.70;84.80
79049;DHT22;68680;50.764;6.120;2024-03-29T15:16:27;14.20;86.80
79049;DHT22;68680;50.764;6.120;2024-03-29T15:18:55;14.10;86.50
79049;DHT22;68680;50.764;6.120;2024-03-29T15:21:21;14.00;86.30
79049;DHT22;68680;50.764;6.120;2024-03-29T15:23:47;13.90;88.40
79049;DHT22;68680;50.764;6.120;2024-03-29T15:26:13;13.80;87.60
79049;DHT22;68680;50.764;6.120;2024-03-29T15:28:40;13.80;89.80
79049;DHT22;68680;50.764;6.120;2024-03-29T15:31:09;13.80;89.50
79049;DHT22;68680;50.764;6.120;2024-03-29T15:33:36;13.90;87.90